sensor_id;sensor_type;location;lat;lon;timestamp;temperature;humidity
35497;DHT22;21609;49.298;6.844;2023-06-05T00:00:53;23.30;48.80
35497;DHT22;21609;49.298;6.844;2023-06-05T00:03:18;23.20;48.80
35497;DHT22;21609;49.298;6.844;2023-06-05T00:05:44;23.20;48.70
35497;DHT22;21609;49.298;6.844;2023-06-05T00:08:09;23.20;48.80
35497;DHT22;21609;49.298;6.844;2023-06-05T00:10:35;23.20;48.80
35497;DHT22;21609;49.298;6.844;2023-06-05T00:13:00;23.20;48.80
35497;DHT22;21609;49.298;6.844;2023-06-05T00:15:26;23.20;48.90
35497;DHT22;21609;49.298;6.844;2023-06-05T00:17:52;23.20;48.90
35497;DHT22;21609;49.298;6.844;2023-06-05T00:20:17;23.20;48.80
35497;DHT22;21609;49.298;6.844;2023-06-05T00:22:43;23.20;48.80
35497;DHT22;21609;49.298;6.844;2023-06-05T00:25:12;23.20;48.90
35497;DHT22;21609;49.298;6.844;2023-06-05T00:27:38;23.20;48.90
35497;DHT22;21609;49.298;6.844;2023-06-05T00:30:09;23.20;48.90
35497;DHT22;21609;49.298;6.844;2023-06-05T00:32:35;23.20;48.90
35497;DHT22;21609;49.298;6.844;2023-06-05T00:35:01;23.20;48.90
35497;DHT22;21609;49.298;6.844;2023-06-05T00:37:27;23.20;49.10
35497;DHT22;21609;49.298;6.844;2023-06-05T00:39:53;23.10;48.90
35497;DHT22;21609;49.298;6.844;2023-06-05T00:42:18;23.10;48.90
35497;DHT22;21609;49.298;6.844;2023-06-05T00:44:44;23.10;48.90
35497;DHT22;21609;49.298;6.844;2023-06-05T00:47:09;23.10;48.90
35497;DHT22;21609;49.298;6.844;2023-06-05T00:49:36;23.10;49.00
35497;DHT22;21609;49.298;6.844;2023-06-05T00:52:02;23.10;49.00
35497;DHT22;21609;49.298;6.844;2023-06-05T00:54:28;23.10;49.00
35497;DHT22;21609;49.298;6.844;2023-06-05T00:56:54;23.10;49.00
35497;DHT22;21609;49.298;6.844;2023-06-05T00:59:20;23.10;49.00
35497;DHT22;21609;49.298;6.844;2023-06-05T01:01:46;23.00;49.00
35497;DHT22;21609;49.298;6.844;2023-06-05T01:04:13;23.00;49.00
35497;DHT22;21609;49.298;6.844;2023-06-05T01:06:39;23.00;49.00
35497;DHT22;21609;49.298;6.844;2023-06-05T01:09:07;23.00;49.00
35497;DHT22;21609;49.298;6.844;2023-06-05T01:11:45;23.00;49.00
35497;DHT22;21609;49.298;6.844;2023-06-05T01:14:21;23.00;49.00
35497;DHT22;21609;49.298;6.844;2023-06-05T01:16:49;23.00;49.20
35497;DHT22;21609;49.298;6.844;2023-06-05T01:19:19;23.00;49.00
35497;DHT22;21609;49.298;6.844;2023-06-05T01:21:45;23.00;49.00
35497;DHT22;21609;49.298;6.844;2023-06-05T01:24:10;23.00;49.20
35497;DHT22;21609;49.298;6.844;2023-06-05T01:32:21;22.90;49.10
35497;DHT22;21609;49.298;6.844;2023-06-05T01:34:47;23.00;49.10
35497;DHT22;21609;49.298;6.844;2023-06-05T01:37:14;23.00;49.10
35497;DHT22;21609;49.298;6.844;2023-06-05T01:39:45;22.90;49.10
35497;DHT22;21609;49.298;6.844;2023-06-05T01:42:12;22.90;49.10
35497;DHT22;21609;49.298;6.844;2023-06-05T01:44:39;22.90;49.10
35497;DHT22;21609;49.298;6.844;2023-06-05T01:47:07;22.90;49.20
35497;DHT22;21609;49.298;6.844;2023-06-05T01:49:33;22.90;49.10
35497;DHT22;21609;49.298;6.844;2023-06-05T01:51:59;22.90;49.20
35497;DHT22;21609;49.298;6.844;2023-06-05T01:54:25;22.90;49.20
35497;DHT22;21609;49.298;6.844;2023-06-05T01:56:52;22.90;49.20
35497;DHT22;21609;49.298;6.844;2023-06-05T01:59:18;22.90;49.30
35497;DHT22;21609;49.298;6.844;2023-06-05T02:01:44;22.80;49.20
35497;DHT22;21609;49.298;6.844;2023-06-05T02:04:10;22.80;49.20
35497;DHT22;21609;49.298;6.844;2023-06-05T02:06:36;22.80;49.20
35497;DHT22;21609;49.298;6.844;2023-06-05T02:09:09;22.80;49.20
35497;DHT22;21609;49.298;6.844;2023-06-05T02:11:38;22.80;49.20
35497;DHT22;21609;49.298;6.844;2023-06-05T02:14:05;22.80;49.30
35497;DHT22;21609;49.298;6.844;2023-06-05T02:16:34;22.80;49.90
35497;DHT22;21609;49.298;6.844;2023-06-05T02:19:02;22.80;49.40
35497;DHT22;21609;49.298;6.844;2023-06-05T02:21:33;22.80;49.30
35497;DHT22;21609;49.298;6.844;2023-06-05T02:23:59;22.80;49.30
35497;DHT22;21609;49.298;6.844;2023-06-05T02:26:25;22.80;49.30
35497;DHT22;21609;49.298;6.844;2023-06-05T02:28:52;22.80;49.40
35497;DHT22;21609;49.298;6.844;2023-06-05T02:31:23;22.70;49.30
35497;DHT22;21609;49.298;6.844;2023-06-05T02:33:54;22.80;49.40
35497;DHT22;21609;49.298;6.844;2023-06-05T02:36:21;22.70;49.40
35497;DHT22;21609;49.298;6.844;2023-06-05T02:38:47;22.70;49.40
35497;DHT22;21609;49.298;6.844;2023-06-05T02:41:16;22.70;49.50
35497;DHT22;21609;49.298;6.844;2023-06-05T02:43:42;22.70;49.40
35497;DHT22;21609;49.298;6.844;2023-06-05T02:46:08;22.70;49.40
35497;DHT22;21609;49.298;6.844;2023-06-05T02:48:33;22.70;49.40
35497;DHT22;21609;49.298;6.844;2023-06-05T02:50:59;22.70;49.50
35497;DHT22;21609;49.298;6.844;2023-06-05T02:53:24;22.70;49.50
35497;DHT22;21609;49.298;6.844;2023-06-05T02:55:50;22.70;49.40
35497;DHT22;21609;49.298;6.844;2023-06-05T02:58:16;22.60;49.40
35497;DHT22;21609;49.298;6.844;2023-06-05T03:00:43;22.70;49.60
35497;DHT22;21609;49.298;6.844;2023-06-05T03:03:10;22.70;49.50
35497;DHT22;21609;49.298;6.844;2023-06-05T03:05:36;22.70;49.50
35497;DHT22;21609;49.298;6.844;2023-06-05T03:08:02;22.60;49.40
35497;DHT22;21609;49.298;6.844;2023-06-05T03:10:28;22.60;49.50
35497;DHT22;21609;49.298;6.844;2023-06-05T03:12:54;22.60;49.50
35497;DHT22;21609;49.298;6.844;2023-06-05T03:15:20;22.60;49.50
35497;DHT22;21609;49.298;6.844;2023-06-05T03:17:46;22.60;50.10
35497;DHT22;21609;49.298;6.844;2023-06-05T03:20:13;22.60;49.60
35497;DHT22;21609;49.298;6.844;2023-06-05T03:22:39;22.60;49.60
35497;DHT22;21609;49.298;6.844;2023-06-05T03:25:05;22.60;49.50
35497;DHT22;21609;49.298;6.844;2023-06-05T03:27:31;22.60;49.60
35497;DHT22;21609;49.298;6.844;2023-06-05T03:29:56;22.50;49.50
35497;DHT22;21609;49.298;6.844;2023-06-05T03:32:24;22.50;49.50
35497;DHT22;21609;49.298;6.844;2023-06-05T03:34:49;22.50;49.50
35497;DHT22;21609;49.298;6.844;2023-06-05T03:37:15;22.50;49.50
35497;DHT22;21609;49.298;6.844;2023-06-05T03:39:41;22.50;49.60
35497;DHT22;21609;49.298;6.844;2023-06-05T03:42:07;22.50;49.50
35497;DHT22;21609;49.298;6.844;2023-06-05T03:44:34;22.50;49.60
35497;DHT22;21609;49.298;6.844;2023-06-05T03:47:00;22.50;49.60
35497;DHT22;21609;49.298;6.844;2023-06-05T03:49:26;22.50;49.60
35497;DHT22;21609;49.298;6.844;2023-06-05T03:51:54;22.50;49.60
35497;DHT22;21609;49.298;6.844;2023-06-05T03:54:26;22.50;49.90
35497;DHT22;21609;49.298;6.844;2023-06-05T03:56:54;22.50;49.60
35497;DHT22;21609;49.298;6.844;2023-06-05T03:59:21;22.50;49.60
35497;DHT22;21609;49.298;6.844;2023-06-05T04:01:48;22.40;49.70
35497;DHT22;21609;49.298;6.844;2023-06-05T04:04:14;22.40;49.60
35497;DHT22;21609;49.298;6.844;2023-06-05T04:06:40;22.50;49.70
35497;DHT22;21609;49.298;6.844;2023-06-05T04:09:09;22.50;49.80
35497;DHT22;21609;49.298;6.844;2023-06-05T04:11:41;22.40;49.70
35497;DHT22;21609;49.298;6.844;2023-06-05T04:14:11;22.40;49.70
35497;DHT22;21609;49.298;6.844;2023-06-05T04:16:37;22.40;49.70
35497;DHT22;21609;49.298;6.844;2023-06-05T04:19:09;22.40;49.80
35497;DHT22;21609;49.298;6.844;2023-06-05T04:21:36;22.40;49.70
35497;DHT22;21609;49.298;6.844;2023-06-05T04:24:06;22.40;49.70
35497;DHT22;21609;49.298;6.844;2023-06-05T04:26:37;22.40;49.70
35497;DHT22;21609;49.298;6.844;2023-06-05T04:29:03;22.40;50.30
35497;DHT22;21609;49.298;6.844;2023-06-05T04:31:35;22.40;49.70
35497;DHT22;21609;49.298;6.844;2023-06-05T04:34:01;22.40;49.70
35497;DHT22;21609;49.298;6.844;2023-06-05T04:36:28;22.40;49.70
35497;DHT22;21609;49.298;6.844;2023-06-05T04:38:54;22.40;49.80
35497;DHT22;21609;49.298;6.844;2023-06-05T04:41:19;22.40;49.70
35497;DHT22;21609;49.298;6.844;2023-06-05T04:43:47;22.40;49.70
35497;DHT22;21609;49.298;6.844;2023-06-05T04:46:12;22.40;49.80
35497;DHT22;21609;49.298;6.844;2023-06-05T04:48:38;22.40;49.70
35497;DHT22;21609;49.298;6.844;2023-06-05T04:51:03;22.40;49.80
35497;DHT22;21609;49.298;6.844;2023-06-05T04:53:29;22.40;49.70
35497;DHT22;21609;49.298;6.844;2023-06-05T04:55:57;22.40;49.70
35497;DHT22;21609;49.298;6.844;2023-06-05T04:58:27;22.40;49.80
35497;DHT22;21609;49.298;6.844;2023-06-05T05:00:52;22.40;49.80
35497;DHT22;21609;49.298;6.844;2023-06-05T05:03:18;22.40;49.80
35497;DHT22;21609;49.298;6.844;2023-06-05T05:05:44;22.40;50.00
35497;DHT22;21609;49.298;6.844;2023-06-05T05:08:09;22.40;50.00
35497;DHT22;21609;49.298;6.844;2023-06-05T05:10:35;22.40;50.00
35497;DHT22;21609;49.298;6.844;2023-06-05T05:13:00;22.40;50.00
35497;DHT22;21609;49.298;6.844;2023-06-05T05:15:27;22.40;50.00
35497;DHT22;21609;49.298;6.844;2023-06-05T05:17:54;22.40;50.10
35497;DHT22;21609;49.298;6.844;2023-06-05T05:20:20;22.40;50.10
35497;DHT22;21609;49.298;6.844;2023-06-05T05:22:45;22.40;50.10
35497;DHT22;21609;49.298;6.844;2023-06-05T05:25:12;22.40;50.20
35497;DHT22;21609;49.298;6.844;2023-06-05T05:27:37;22.50;50.30
35497;DHT22;21609;49.298;6.844;2023-06-05T05:30:03;22.40;50.30
35497;DHT22;21609;49.298;6.844;2023-06-05T05:32:29;22.50;50.30
35497;DHT22;21609;49.298;6.844;2023-06-05T05:34:55;22.50;50.40
35497;DHT22;21609;49.298;6.844;2023-06-05T05:37:21;22.50;50.40
35497;DHT22;21609;49.298;6.844;2023-06-05T05:39:47;22.50;50.40
35497;DHT22;21609;49.298;6.844;2023-06-05T05:42:13;22.40;50.40
35497;DHT22;21609;49.298;6.844;2023-06-05T05:44:38;22.50;50.50
35497;DHT22;21609;49.298;6.844;2023-06-05T05:47:08;22.50;50.50
35497;DHT22;21609;49.298;6.844;2023-06-05T05:49:33;22.50;50.50
35497;DHT22;21609;49.298;6.844;2023-06-05T05:51:59;22.50;49.30
35497;DHT22;21609;49.298;6.844;2023-06-05T05:54:25;22.50;50.40
35497;DHT22;21609;49.298;6.844;2023-06-05T05:56:53;22.50;50.40
35497;DHT22;21609;49.298;6.844;2023-06-05T05:59:18;22.50;50.30
35497;DHT22;21609;49.298;6.844;2023-06-05T06:01:45;22.50;50.30
35497;DHT22;21609;49.298;6.844;2023-06-05T06:04:11;22.50;50.20
35497;DHT22;21609;49.298;6.844;2023-06-05T06:06:37;22.50;50.30
35497;DHT22;21609;49.298;6.844;2023-06-05T06:09:05;22.50;50.30
35497;DHT22;21609;49.298;6.844;2023-06-05T06:11:33;22.50;50.30
35497;DHT22;21609;49.298;6.844;2023-06-05T06:13:59;22.50;50.20
35497;DHT22;21609;49.298;6.844;2023-06-05T06:16:25;22.50;50.20
35497;DHT22;21609;49.298;6.844;2023-06-05T06:18:50;22.50;50.20
35497;DHT22;21609;49.298;6.844;2023-06-05T06:21:17;22.50;50.20
35497;DHT22;21609;49.298;6.844;2023-06-05T06:23:43;22.50;50.00
35497;DHT22;21609;49.298;6.844;2023-06-05T06:26:10;22.50;50.10
35497;DHT22;21609;49.298;6.844;2023-06-05T06:28:37;22.50;50.10
35497;DHT22;21609;49.298;6.844;2023-06-05T06:31:02;22.50;50.10
35497;DHT22;21609;49.298;6.844;2023-06-05T06:33:28;22.60;50.20
35497;DHT22;21609;49.298;6.844;2023-06-05T06:35:54;22.50;50.10
35497;DHT22;21609;49.298;6.844;2023-06-05T06:38:20;22.50;50.10
35497;DHT22;21609;49.298;6.844;2023-06-05T06:40:46;22.60;50.10
35497;DHT22;21609;49.298;6.844;2023-06-05T06:43:12;22.60;50.20
35497;DHT22;21609;49.298;6.844;2023-06-05T06:45:37;22.60;50.20
35497;DHT22;21609;49.298;6.844;2023-06-05T06:48:03;22.60;50.00
35497;DHT22;21609;49.298;6.844;2023-06-05T06:50:28;22.60;50.20
35497;DHT22;21609;49.298;6.844;2023-06-05T06:52:54;22.60;50.00
35497;DHT22;21609;49.298;6.844;2023-06-05T06:55:20;22.60;50.00
35497;DHT22;21609;49.298;6.844;2023-06-05T06:57:46;22.60;49.80
35497;DHT22;21609;49.298;6.844;2023-06-05T07:00:12;22.60;49.80
35497;DHT22;21609;49.298;6.844;2023-06-05T07:02:40;22.60;49.80
35497;DHT22;21609;49.298;6.844;2023-06-05T07:05:05;22.60;50.10
35497;DHT22;21609;49.298;6.844;2023-06-05T07:07:31;22.60;50.00
35497;DHT22;21609;49.298;6.844;2023-06-05T07:09:57;22.60;49.80
35497;DHT22;21609;49.298;6.844;2023-06-05T07:12:23;22.60;49.90
35497;DHT22;21609;49.298;6.844;2023-06-05T07:14:49;22.60;49.80
35497;DHT22;21609;49.298;6.844;2023-06-05T07:17:15;22.60;49.90
35497;DHT22;21609;49.298;6.844;2023-06-05T07:19:40;22.60;49.70
35497;DHT22;21609;49.298;6.844;2023-06-05T07:22:06;22.70;49.70
35497;DHT22;21609;49.298;6.844;2023-06-05T07:24:34;22.70;49.60
35497;DHT22;21609;49.298;6.844;2023-06-05T07:27:04;22.70;49.80
35497;DHT22;21609;49.298;6.844;2023-06-05T07:29:30;22.70;49.50
35497;DHT22;21609;49.298;6.844;2023-06-05T07:31:57;22.70;49.70
35497;DHT22;21609;49.298;6.844;2023-06-05T07:34:24;22.70;49.60
35497;DHT22;21609;49.298;6.844;2023-06-05T07:36:50;22.70;49.60
35497;DHT22;21609;49.298;6.844;2023-06-05T07:39:17;22.70;49.80
35497;DHT22;21609;49.298;6.844;2023-06-05T07:41:43;22.70;50.20
35497;DHT22;21609;49.298;6.844;2023-06-05T07:44:14;22.80;49.60
35497;DHT22;21609;49.298;6.844;2023-06-05T07:46:40;22.70;49.50
35497;DHT22;21609;49.298;6.844;2023-06-05T07:49:07;22.70;49.50
35497;DHT22;21609;49.298;6.844;2023-06-05T07:51:34;22.70;49.60
35497;DHT22;21609;49.298;6.844;2023-06-05T07:54:05;22.80;50.10
35497;DHT22;21609;49.298;6.844;2023-06-05T07:56:31;22.80;49.20
35497;DHT22;21609;49.298;6.844;2023-06-05T07:58:57;22.80;49.30
35497;DHT22;21609;49.298;6.844;2023-06-05T08:01:23;22.80;49.30
35497;DHT22;21609;49.298;6.844;2023-06-05T08:03:49;22.80;49.20
35497;DHT22;21609;49.298;6.844;2023-06-05T08:06:14;22.80;49.10
35497;DHT22;21609;49.298;6.844;2023-06-05T08:08:41;22.80;49.10
35497;DHT22;21609;49.298;6.844;2023-06-05T08:11:08;22.80;49.10
35497;DHT22;21609;49.298;6.844;2023-06-05T08:13:34;22.80;49.00
35497;DHT22;21609;49.298;6.844;2023-06-05T08:15:59;22.80;49.10
35497;DHT22;21609;49.298;6.844;2023-06-05T08:18:25;22.90;48.90
35497;DHT22;21609;49.298;6.844;2023-06-05T08:20:51;22.90;48.90
35497;DHT22;21609;49.298;6.844;2023-06-05T08:23:16;22.90;48.80
35497;DHT22;21609;49.298;6.844;2023-06-05T08:25:42;22.90;48.70
35497;DHT22;21609;49.298;6.844;2023-06-05T08:28:08;22.90;48.80
35497;DHT22;21609;49.298;6.844;2023-06-05T08:30:33;22.90;48.80
35497;DHT22;21609;49.298;6.844;2023-06-05T08:32:59;22.90;48.70
35497;DHT22;21609;49.298;6.844;2023-06-05T08:35:25;23.00;48.70
35497;DHT22;21609;49.298;6.844;2023-06-05T08:37:51;23.00;48.80
35497;DHT22;21609;49.298;6.844;2023-06-05T08:40:18;23.00;48.80
35497;DHT22;21609;49.298;6.844;2023-06-05T08:42:44;23.00;48.90
35497;DHT22;21609;49.298;6.844;2023-06-05T08:45:11;23.00;48.80
35497;DHT22;21609;49.298;6.844;2023-06-05T08:47:37;23.00;48.90
35497;DHT22;21609;49.298;6.844;2023-06-05T08:50:05;23.00;48.80
35497;DHT22;21609;49.298;6.844;2023-06-05T08:52:34;23.10;48.90
35497;DHT22;21609;49.298;6.844;2023-06-05T08:55:02;23.10;48.90
35497;DHT22;21609;49.298;6.844;2023-06-05T08:57:28;23.10;48.80
35497;DHT22;21609;49.298;6.844;2023-06-05T08:59:54;23.10;48.80
35497;DHT22;21609;49.298;6.844;2023-06-05T09:02:20;23.20;48.80
35497;DHT22;21609;49.298;6.844;2023-06-05T09:04:45;23.10;48.80
35497;DHT22;21609;49.298;6.844;2023-06-05T09:07:12;23.20;48.90
35497;DHT22;21609;49.298;6.844;2023-06-05T09:09:38;23.20;48.90
35497;DHT22;21609;49.298;6.844;2023-06-05T09:12:05;23.20;49.00
35497;DHT22;21609;49.298;6.844;2023-06-05T09:14:31;23.20;49.00
35497;DHT22;21609;49.298;6.844;2023-06-05T09:16:58;23.30;48.90
35497;DHT22;21609;49.298;6.844;2023-06-05T09:19:24;23.30;49.00
35497;DHT22;21609;49.298;6.844;2023-06-05T09:21:54;23.30;49.00
35497;DHT22;21609;49.298;6.844;2023-06-05T09:24:21;23.30;49.00
35497;DHT22;21609;49.298;6.844;2023-06-05T09:26:56;23.30;49.00
35497;DHT22;21609;49.298;6.844;2023-06-05T09:29:26;23.30;49.00
35497;DHT22;21609;49.298;6.844;2023-06-05T09:31:54;23.30;49.00
35497;DHT22;21609;49.298;6.844;2023-06-05T09:34:21;23.40;49.10
35497;DHT22;21609;49.298;6.844;2023-06-05T09:36:47;23.40;49.00
35497;DHT22;21609;49.298;6.844;2023-06-05T09:39:16;23.40;49.00
35497;DHT22;21609;49.298;6.844;2023-06-05T09:41:43;23.40;49.10
35497;DHT22;21609;49.298;6.844;2023-06-05T09:44:12;23.40;49.00
35497;DHT22;21609;49.298;6.844;2023-06-05T09:49:15;23.50;49.00
35497;DHT22;21609;49.298;6.844;2023-06-05T09:51:43;23.50;49.10
35497;DHT22;21609;49.298;6.844;2023-06-05T09:54:09;23.50;49.10
35497;DHT22;21609;49.298;6.844;2023-06-05T09:56:36;23.50;49.10
35497;DHT22;21609;49.298;6.844;2023-06-05T09:59:06;23.50;49.10
35497;DHT22;21609;49.298;6.844;2023-06-05T10:01:35;23.50;49.10
35497;DHT22;21609;49.298;6.844;2023-06-05T10:04:09;23.50;49.00
35497;DHT22;21609;49.298;6.844;2023-06-05T10:06:36;23.50;49.00
35497;DHT22;21609;49.298;6.844;2023-06-05T10:09:02;23.50;49.00
35497;DHT22;21609;49.298;6.844;2023-06-05T10:11:29;23.60;49.00
35497;DHT22;21609;49.298;6.844;2023-06-05T10:13:55;23.60;49.00
35497;DHT22;21609;49.298;6.844;2023-06-05T10:16:25;23.60;49.60
35497;DHT22;21609;49.298;6.844;2023-06-05T10:18:51;23.60;49.00
35497;DHT22;21609;49.298;6.844;2023-06-05T10:21:18;23.60;49.00
35497;DHT22;21609;49.298;6.844;2023-06-05T10:23:49;23.60;49.00
35497;DHT22;21609;49.298;6.844;2023-06-05T10:37:56;23.70;49.00
35497;DHT22;21609;49.298;6.844;2023-06-05T10:40:24;23.70;49.10
35497;DHT22;21609;49.298;6.844;2023-06-05T10:42:50;23.80;48.60
35497;DHT22;21609;49.298;6.844;2023-06-05T10:45:32;23.70;48.80
35497;DHT22;21609;49.298;6.844;2023-06-05T10:47:57;23.70;48.80
35497;DHT22;21609;49.298;6.844;2023-06-05T10:50:24;23.70;48.70
35497;DHT22;21609;49.298;6.844;2023-06-05T10:52:55;23.70;48.90
35497;DHT22;21609;49.298;6.844;2023-06-05T10:55:22;23.80;48.90
35497;DHT22;21609;49.298;6.844;2023-06-05T11:00:29;23.80;48.70
35497;DHT22;21609;49.298;6.844;2023-06-05T11:02:55;23.80;48.80
35497;DHT22;21609;49.298;6.844;2023-06-05T11:05:21;23.80;48.70
35497;DHT22;21609;49.298;6.844;2023-06-05T11:07:47;23.90;48.80
35497;DHT22;21609;49.298;6.844;2023-06-05T11:10:14;23.90;48.70
35497;DHT22;21609;49.298;6.844;2023-06-05T11:20:06;23.90;48.50
35497;DHT22;21609;49.298;6.844;2023-06-05T11:28:00;24.00;48.30
35497;DHT22;21609;49.298;6.844;2023-06-05T11:33:12;24.00;48.30
35497;DHT22;21609;49.298;6.844;2023-06-05T11:35:39;24.00;48.30
35497;DHT22;21609;49.298;6.844;2023-06-05T11:38:13;24.00;48.30
35497;DHT22;21609;49.298;6.844;2023-06-05T11:40:40;24.10;48.10
35497;DHT22;21609;49.298;6.844;2023-06-05T11:43:07;24.10;48.10
35497;DHT22;21609;49.298;6.844;2023-06-05T11:45:34;24.10;48.10
35497;DHT22;21609;49.298;6.844;2023-06-05T11:50:33;24.10;48.10
35497;DHT22;21609;49.298;6.844;2023-06-05T11:53:09;24.10;48.10
35497;DHT22;21609;49.298;6.844;2023-06-05T11:55:35;24.10;47.60
35497;DHT22;21609;49.298;6.844;2023-06-05T11:58:25;24.10;47.80
35497;DHT22;21609;49.298;6.844;2023-06-05T12:00:51;24.20;47.90
35497;DHT22;21609;49.298;6.844;2023-06-05T12:03:20;24.20;47.80
35497;DHT22;21609;49.298;6.844;2023-06-05T12:05:49;24.20;47.80
35497;DHT22;21609;49.298;6.844;2023-06-05T12:08:22;24.20;47.80
35497;DHT22;21609;49.298;6.844;2023-06-05T12:10:47;24.20;47.80
35497;DHT22;21609;49.298;6.844;2023-06-05T12:13:13;24.20;47.90
35497;DHT22;21609;49.298;6.844;2023-06-05T12:15:38;24.20;47.80
35497;DHT22;21609;49.298;6.844;2023-06-05T12:18:04;24.20;47.80
35497;DHT22;21609;49.298;6.844;2023-06-05T12:20:38;24.20;47.70
35497;DHT22;21609;49.298;6.844;2023-06-05T12:23:05;24.20;47.70
35497;DHT22;21609;49.298;6.844;2023-06-05T12:25:30;24.30;47.80
35497;DHT22;21609;49.298;6.844;2023-06-05T12:27:56;24.30;47.90
35497;DHT22;21609;49.298;6.844;2023-06-05T12:30:22;24.30;47.90
35497;DHT22;21609;49.298;6.844;2023-06-05T12:32:47;24.30;47.90
35497;DHT22;21609;49.298;6.844;2023-06-05T12:35:23;24.30;47.90
35497;DHT22;21609;49.298;6.844;2023-06-05T12:37:49;24.30;47.90
35497;DHT22;21609;49.298;6.844;2023-06-05T12:40:16;24.30;47.90
35497;DHT22;21609;49.298;6.844;2023-06-05T12:42:46;24.40;48.00
35497;DHT22;21609;49.298;6.844;2023-06-05T12:45:12;24.40;47.90
35497;DHT22;21609;49.298;6.844;2023-06-05T12:47:39;24.30;47.90
35497;DHT22;21609;49.298;6.844;2023-06-05T12:50:06;24.40;47.80
35497;DHT22;21609;49.298;6.844;2023-06-05T12:52:33;24.40;47.80
35497;DHT22;21609;49.298;6.844;2023-06-05T12:54:59;24.30;47.80
35497;DHT22;21609;49.298;6.844;2023-06-05T12:57:25;24.40;47.80
35497;DHT22;21609;49.298;6.844;2023-06-05T12:59:53;24.40;47.80
35497;DHT22;21609;49.298;6.844;2023-06-05T13:02:19;24.40;47.70
35497;DHT22;21609;49.298;6.844;2023-06-05T13:04:45;24.40;47.70
35497;DHT22;21609;49.298;6.844;2023-06-05T13:07:11;24.40;47.70
35497;DHT22;21609;49.298;6.844;2023-06-05T13:09:37;24.40;47.70
35497;DHT22;21609;49.298;6.844;2023-06-05T13:12:03;24.40;47.70
35497;DHT22;21609;49.298;6.844;2023-06-05T13:14:32;24.40;47.70
35497;DHT22;21609;49.298;6.844;2023-06-05T13:16:58;24.50;47.70
35497;DHT22;21609;49.298;6.844;2023-06-05T13:19:24;24.50;47.70
35497;DHT22;21609;49.298;6.844;2023-06-05T13:21:50;24.50;47.70
35497;DHT22;21609;49.298;6.844;2023-06-05T13:24:16;24.50;47.60
35497;DHT22;21609;49.298;6.844;2023-06-05T13:26:42;24.50;47.40
35497;DHT22;21609;49.298;6.844;2023-06-05T13:29:11;24.50;47.30
35497;DHT22;21609;49.298;6.844;2023-06-05T13:31:37;24.50;47.40
35497;DHT22;21609;49.298;6.844;2023-06-05T13:34:03;24.50;47.30
35497;DHT22;21609;49.298;6.844;2023-06-05T13:36:28;24.60;47.20
35497;DHT22;21609;49.298;6.844;2023-06-05T13:38:54;24.50;47.30
35497;DHT22;21609;49.298;6.844;2023-06-05T13:41:20;24.60;47.30
35497;DHT22;21609;49.298;6.844;2023-06-05T13:43:46;24.60;47.30
35497;DHT22;21609;49.298;6.844;2023-06-05T13:46:12;24.60;47.40
35497;DHT22;21609;49.298;6.844;2023-06-05T13:48:38;24.60;47.40
35497;DHT22;21609;49.298;6.844;2023-06-05T13:51:04;24.60;47.40
35497;DHT22;21609;49.298;6.844;2023-06-05T13:53:30;24.60;47.40
35497;DHT22;21609;49.298;6.844;2023-06-05T13:56:03;24.60;47.40
35497;DHT22;21609;49.298;6.844;2023-06-05T13:58:30;24.60;47.40
35497;DHT22;21609;49.298;6.844;2023-06-05T14:00:55;24.60;47.30
35497;DHT22;21609;49.298;6.844;2023-06-05T14:03:22;24.70;47.30
35497;DHT22;21609;49.298;6.844;2023-06-05T14:05:47;24.70;47.30
35497;DHT22;21609;49.298;6.844;2023-06-05T14:08:13;24.70;47.30
35497;DHT22;21609;49.298;6.844;2023-06-05T14:10:38;24.70;47.30
35497;DHT22;21609;49.298;6.844;2023-06-05T14:13:04;24.70;47.20
35497;DHT22;21609;49.298;6.844;2023-06-05T14:15:31;24.70;47.30
35497;DHT22;21609;49.298;6.844;2023-06-05T14:17:59;24.70;47.20
35497;DHT22;21609;49.298;6.844;2023-06-05T14:20:25;24.70;47.30
35497;DHT22;21609;49.298;6.844;2023-06-05T14:22:51;24.70;47.30
35497;DHT22;21609;49.298;6.844;2023-06-05T14:25:17;24.70;47.50
35497;DHT22;21609;49.298;6.844;2023-06-05T14:27:42;24.70;46.80
35497;DHT22;21609;49.298;6.844;2023-06-05T14:30:08;24.60;46.50
35497;DHT22;21609;49.298;6.844;2023-06-05T14:32:34;24.70;47.10
35497;DHT22;21609;49.298;6.844;2023-06-05T14:35:01;24.70;46.50
35497;DHT22;21609;49.298;6.844;2023-06-05T14:37:27;24.60;46.30
35497;DHT22;21609;49.298;6.844;2023-06-05T14:39:52;24.60;46.40
35497;DHT22;21609;49.298;6.844;2023-06-05T14:42:18;24.60;46.20
35497;DHT22;21609;49.298;6.844;2023-06-05T14:44:43;24.60;46.50
35497;DHT22;21609;49.298;6.844;2023-06-05T14:47:09;24.60;46.40
35497;DHT22;21609;49.298;6.844;2023-06-05T14:49:34;24.60;46.50
35497;DHT22;21609;49.298;6.844;2023-06-05T14:52:00;24.60;46.40
35497;DHT22;21609;49.298;6.844;2023-06-05T14:54:25;24.60;46.30
35497;DHT22;21609;49.298;6.844;2023-06-05T14:56:51;24.60;46.10
35497;DHT22;21609;49.298;6.844;2023-06-05T14:59:16;24.60;46.40
35497;DHT22;21609;49.298;6.844;2023-06-05T15:01:42;24.60;46.10
35497;DHT22;21609;49.298;6.844;2023-06-05T15:04:08;24.60;46.20
35497;DHT22;21609;49.298;6.844;2023-06-05T15:06:33;24.60;46.10
35497;DHT22;21609;49.298;6.844;2023-06-05T15:08:59;24.50;46.10
35497;DHT22;21609;49.298;6.844;2023-06-05T15:11:24;24.60;46.30
35497;DHT22;21609;49.298;6.844;2023-06-05T15:13:50;24.60;46.10
35497;DHT22;21609;49.298;6.844;2023-06-05T15:16:15;24.50;46.00
35497;DHT22;21609;49.298;6.844;2023-06-05T15:18:41;24.50;46.00
35497;DHT22;21609;49.298;6.844;2023-06-05T15:21:06;24.50;46.00
35497;DHT22;21609;49.298;6.844;2023-06-05T15:23:32;24.50;46.00
35497;DHT22;21609;49.298;6.844;2023-06-05T15:25:58;24.50;46.10
35497;DHT22;21609;49.298;6.844;2023-06-05T15:28:23;24.50;46.10
35497;DHT22;21609;49.298;6.844;2023-06-05T15:30:49;24.50;46.30
35497;DHT22;21609;49.298;6.844;2023-06-05T15:33:15;24.50;45.90
35497;DHT22;21609;49.298;6.844;2023-06-05T15:35:41;24.50;46.00
35497;DHT22;21609;49.298;6.844;2023-06-05T15:38:10;24.60;46.10
35497;DHT22;21609;49.298;6.844;2023-06-05T15:40:36;24.50;46.00
35497;DHT22;21609;49.298;6.844;2023-06-05T15:43:08;24.50;45.90
35497;DHT22;21609;49.298;6.844;2023-06-05T15:45:35;24.50;46.20
35497;DHT22;21609;49.298;6.844;2023-06-05T15:48:01;24.50;46.00
35497;DHT22;21609;49.298;6.844;2023-06-05T15:50:27;24.50;46.10
35497;DHT22;21609;49.298;6.844;2023-06-05T15:52:52;24.50;45.90
35497;DHT22;21609;49.298;6.844;2023-06-05T15:55:18;24.50;46.10
35497;DHT22;21609;49.298;6.844;2023-06-05T15:57:43;24.50;46.10
35497;DHT22;21609;49.298;6.844;2023-06-05T16:00:11;24.50;46.10
35497;DHT22;21609;49.298;6.844;2023-06-05T16:02:37;24.50;46.20
35497;DHT22;21609;49.298;6.844;2023-06-05T16:05:03;24.40;46.10
35497;DHT22;21609;49.298;6.844;2023-06-05T16:07:30;24.40;46.20